Time;durP1;ratioP1;P1;durP2;ratioP2;P2;SDS_P1;SDS_P2;PMS_P1;PMS_P2;Temp;Humidity;BMP_temperature;BMP_pressure;BME280_temperature;BME280_humidity;BME280_pressure;Samples;Min_cycle;Max_cycle;Signal;HPM_P1;HPM_P2
2021/09/15 00:00:07;;;;;;;12.98;10.75;;;17.50;99.90;;;;;;4994922;28;20215;-78
2021/09/15 00:02:34;;;;;;;13.63;10.40;;;17.50;99.90;;;;;;4997569;28;20292;-78
2021/09/15 00:05:01;;;;;;;14.23;10.57;;;17.50;99.90;;;;;;5028775;28;20297;-78
2021/09/15 00:07:28;;;;;;;12.45;10.70;;;17.40;99.90;;;;;;5014939;28;20229;-78
2021/09/15 00:09:56;;;;;;;13.77;11.32;;;17.30;99.90;;;;;;4995192;28;20209;-78
2021/09/15 00:12:23;;;;;;;12.35;10.75;;;17.20;99.90;;;;;;4996229;28;20625;-78
2021/09/15 00:14:50;;;;;;;13.23;11.25;;;16.90;99.90;;;;;;5013585;28;20208;-78
2021/09/15 00:17:17;;;;;;;14.55;12.02;;;16.80;99.90;;;;;;5006522;28;20227;-78
2021/09/15 00:19:44;;;;;;;13.85;11.48;;;16.80;99.90;;;;;;5011241;28;20295;-78
2021/09/15 00:22:11;;;;;;;14.85;11.80;;;16.80;99.90;;;;;;5013439;28;20203;-78
2021/09/15 00:24:37;;;;;;;14.88;11.52;;;16.80;99.90;;;;;;5013704;28;20204;-78
2021/09/15 00:27:05;;;;;;;14.60;11.77;;;16.80;99.90;;;;;;5014111;28;20212;-78
2021/09/15 00:29:32;;;;;;;13.93;11.10;;;16.90;99.90;;;;;;5014153;28;20204;-78
2021/09/15 00:31:59;;;;;;;16.77;11.43;;;16.90;99.90;;;;;;5019095;28;20567;-77
2021/09/15 00:34:30;;;;;;;15.75;12.02;;;16.90;99.90;;;;;;5012414;28;20291;-78
2021/09/15 00:36:56;;;;;;;12.82;10.82;;;17.00;99.90;;;;;;5012693;28;20243;-78
2021/09/15 00:39:23;;;;;;;14.60;11.45;;;17.00;99.90;;;;;;4994454;28;20205;-78
2021/09/15 00:41:50;;;;;;;15.13;11.73;;;16.80;99.90;;;;;;4993235;28;20205;-78
2021/09/15 00:44:19;;;;;;;15.38;11.10;;;16.80;99.90;;;;;;5008430;28;20651;-78
2021/09/15 00:46:46;;;;;;;15.73;11.82;;;16.80;99.90;;;;;;5013073;28;20216;-78
2021/09/15 00:49:13;;;;;;;16.52;11.77;;;16.90;99.90;;;;;;4994295;28;20203;-78
2021/09/15 00:51:42;;;;;;;12.80;10.82;;;17.00;99.90;;;;;;5002098;28;20208;-78
2021/09/15 00:54:12;;;;;;;12.93;10.88;;;17.00;99.90;;;;;;5013315;28;20205;-78
2021/09/15 00:56:39;;;;;;;14.07;11.25;;;16.90;99.90;;;;;;5012446;28;20227;-78
2021/09/15 00:59:06;;;;;;;11.85;10.65;;;16.80;99.90;;;;;;5012923;28;20208;-78
2021/09/15 01:01:35;;;;;;;14.20;11.70;;;16.90;99.90;;;;;;5011475;28;20664;-79
2021/09/15 01:04:03;;;;;;;12.50;11.13;;;16.90;99.90;;;;;;5019516;28;20206;-78
2021/09/15 01:06:32;;;;;;;13.00;11.43;;;17.00;99.90;;;;;;5012581;28;20691;-77
2021/09/15 01:09:00;;;;;;;15.68;11.55;;;17.10;99.90;;;;;;5011640;28;20208;-78
2021/09/15 01:11:28;;;;;;;13.93;10.85;;;16.90;99.90;;;;;;5033127;28;20273;-78
2021/09/15 01:13:55;;;;;;;12.43;10.52;;;16.90;99.90;;;;;;5005281;28;20196;-77
2021/09/15 01:16:22;;;;;;;13.27;10.40;;;16.90;99.90;;;;;;5032030;28;20231;-78
2021/09/15 01:18:50;;;;;;;12.70;11.30;;;16.70;99.90;;;;;;5013541;28;20207;-78
2021/09/15 01:21:19;;;;;;;14.23;11.00;;;16.70;99.90;;;;;;5013126;28;20218;-78
2021/09/15 01:23:45;;;;;;;13.57;11.13;;;16.80;99.90;;;;;;4999731;28;20756;-78
2021/09/15 01:26:12;;;;;;;17.80;11.40;;;16.80;99.90;;;;;;4992914;28;20231;-78
2021/09/15 01:28:39;;;;;;;13.32;10.50;;;16.70;99.90;;;;;;5018209;28;20644;-77
2021/09/15 01:31:06;;;;;;;12.73;9.88;;;16.80;99.90;;;;;;5013339;28;20210;-78
2021/09/15 01:33:33;;;;;;;13.77;11.32;;;16.80;99.90;;;;;;5010506;28;20675;-78
2021/09/15 01:36:00;;;;;;;15.73;11.05;;;16.80;99.90;;;;;;5026256;28;20233;-78
2021/09/15 01:38:28;;;;;;;12.40;10.63;;;16.90;99.90;;;;;;5015632;28;20200;-78
2021/09/15 01:40:55;;;;;;;14.23;10.77;;;17.00;99.90;;;;;;5029234;28;20195;-78
2021/09/15 01:43:21;;;;;;;13.32;10.93;;;16.90;99.90;;;;;;5009058;28;20197;-78
2021/09/15 01:45:48;;;;;;;14.98;11.38;;;16.90;99.90;;;;;;5012282;28;20634;-77
2021/09/15 01:48:15;;;;;;;13.82;11.40;;;16.90;99.90;;;;;;5013257;28;20215;-78
2021/09/15 01:50:42;;;;;;;14.18;11.15;;;16.90;99.90;;;;;;5011633;28;20740;-78
2021/09/15 01:53:08;;;;;;;15.55;11.43;;;16.90;99.90;;;;;;5006505;28;20207;-78
2021/09/15 01:55:37;;;;;;;13.05;11.57;;;16.90;99.90;;;;;;5007006;28;20217;-78
2021/09/15 01:58:08;;;;;;;14.18;11.52;;;16.90;99.90;;;;;;5001161;28;20569;-78
2021/09/15 02:00:35;;;;;;;14.40;11.80;;;16.90;99.90;;;;;;5009005;28;20274;-78
2021/09/15 02:03:02;;;;;;;13.82;11.68;;;16.80;99.90;;;;;;4992559;28;20215;-78
2021/09/15 02:05:29;;;;;;;13.13;10.80;;;16.80;99.90;;;;;;5011356;28;20611;-80
2021/09/15 02:07:55;;;;;;;14.68;11.75;;;16.80;99.90;;;;;;5007864;28;20291;-78
2021/09/15 02:10:22;;;;;;;13.85;11.85;;;16.80;99.90;;;;;;5002326;28;20654;-78
2021/09/15 02:12:50;;;;;;;14.80;11.90;;;16.80;99.90;;;;;;5009281;28;20212;-78
2021/09/15 02:15:17;;;;;;;13.70;11.63;;;16.70;99.90;;;;;;5017129;28;20306;-77
2021/09/15 02:17:44;;;;;;;13.70;11.23;;;16.80;99.90;;;;;;5008268;28;20556;-79
2021/09/15 02:20:12;;;;;;;13.18;10.88;;;16.80;99.90;;;;;;5009058;28;20208;-78
2021/09/15 02:22:39;;;;;;;12.85;11.00;;;16.80;99.90;;;;;;5012410;28;20204;-78
2021/09/15 02:25:07;;;;;;;12.15;10.68;;;16.90;99.90;;;;;;5011666;28;20212;-78
2021/09/15 02:27:34;;;;;;;12.25;10.48;;;16.90;99.90;;;;;;5009861;28;20200;-78
2021/09/15 02:30:03;;;;;;;14.60;11.77;;;16.90;99.90;;;;;;5017072;28;20197;-78
2021/09/15 02:32:30;;;;;;;13.45;11.13;;;16.90;99.90;;;;;;5012208;28;20226;-78
2021/09/15 02:34:57;;;;;;;15.48;11.32;;;16.90;99.90;;;;;;5010403;28;20212;-77
2021/09/15 02:37:23;;;;;;;11.73;10.13;;;16.90;99.90;;;;;;5010684;28;20220;-78
2021/09/15 02:39:50;;;;;;;12.13;10.52;;;16.90;99.90;;;;;;5011101;28;20699;-78
2021/09/15 02:42:17;;;;;;;13.70;11.18;;;16.90;99.90;;;;;;4997228;28;20374;-78
2021/09/15 02:44:44;;;;;;;14.00;10.75;;;16.90;99.90;;;;;;5012189;28;20222;-78
2021/09/15 02:47:12;;;;;;;15.32;10.88;;;16.90;99.90;;;;;;5011558;28;20220;-78
2021/09/15 02:49:40;;;;;;;14.40;11.88;;;16.90;99.90;;;;;;5009199;28;20579;-78
2021/09/15 02:52:07;;;;;;;14.57;11.90;;;16.90;99.90;;;;;;5005712;28;20584;-78
2021/09/15 02:54:33;;;;;;;13.38;11.15;;;16.90;99.90;;;;;;5013104;28;20235;-78
2021/09/15 02:57:00;;;;;;;15.30;12.02;;;16.90;99.90;;;;;;5010268;28;20228;-78
2021/09/15 02:59:27;;;;;;;13.68;11.32;;;17.00;99.90;;;;;;4991176;28;20292;-79
2021/09/15 03:01:54;;;;;;;15.73;11.23;;;17.00;99.90;;;;;;4990705;28;20215;-77
2021/09/15 03:04:22;;;;;;;13.90;11.27;;;17.00;99.90;;;;;;4992438;28;20219;-78
2021/09/15 03:06:49;;;;;;;15.32;11.52;;;17.00;99.90;;;;;;4991097;28;20877;-78
2021/09/15 03:09:15;;;;;;;13.75;11.45;;;17.00;99.90;;;;;;5009057;28;20208;-78
2021/09/15 03:11:42;;;;;;;13.70;11.07;;;17.00;99.90;;;;;;5011268;28;20678;-78
2021/09/15 03:14:09;;;;;;;12.77;10.82;;;17.00;99.90;;;;;;5013734;28;20618;-78
2021/09/15 03:16:36;;;;;;;13.10;11.00;;;17.00;99.90;;;;;;5005230;28;20693;-78
2021/09/15 03:19:03;;;;;;;12.63;10.95;;;16.90;99.90;;;;;;4990684;28;20215;-78
2021/09/15 03:21:31;;;;;;;12.52;10.43;;;17.00;99.90;;;;;;4995716;28;20206;-78
2021/09/15 03:23:58;;;;;;;14.93;10.60;;;17.00;99.90;;;;;;5007704;28;20219;-78
2021/09/15 03:26:25;;;;;;;15.52;10.05;;;17.00;99.90;;;;;;5015145;28;20223;-79
2021/09/15 03:28:52;;;;;;;12.32;10.40;;;17.00;99.90;;;;;;5001505;28;20298;-78
2021/09/15 03:31:18;;;;;;;12.52;9.95;;;17.00;99.90;;;;;;5006046;28;20601;-78
2021/09/15 03:33:45;;;;;;;13.77;10.05;;;17.00;99.90;;;;;;4994518;28;20287;-78
2021/09/15 03:36:12;;;;;;;13.82;10.75;;;17.00;99.90;;;;;;4996006;28;20229;-78
2021/09/15 03:38:40;;;;;;;12.32;9.68;;;17.00;99.90;;;;;;4996450;28;20205;-78
2021/09/15 03:41:07;;;;;;;13.07;9.45;;;17.10;99.90;;;;;;4994491;28;20209;-78
2021/09/15 03:43:34;;;;;;;13.80;10.45;;;17.10;99.90;;;;;;4996259;28;20215;-77
2021/09/15 03:46:01;;;;;;;12.23;10.18;;;17.10;99.90;;;;;;4996704;28;20236;-77
2021/09/15 03:48:28;;;;;;;10.40;9.10;;;17.20;99.90;;;;;;5015451;28;20239;-78
2021/09/15 03:50:55;;;;;;;11.98;10.10;;;17.20;99.90;;;;;;5012718;28;20235;-77
2021/09/15 03:53:21;;;;;;;13.90;11.25;;;17.20;99.90;;;;;;4995641;28;20209;-78
2021/09/15 03:55:50;;;;;;;14.57;11.57;;;17.30;99.90;;;;;;4994736;28;20230;-78
2021/09/15 03:58:16;;;;;;;11.93;10.40;;;17.30;99.90;;;;;;4994664;28;20232;-77
2021/09/15 04:00:43;;;;;;;12.85;9.70;;;17.30;99.90;;;;;;4994298;28;20200;-78
2021/09/15 04:03:11;;;;;;;11.65;10.00;;;17.30;99.90;;;;;;5003439;28;20230;-78
2021/09/15 04:05:37;;;;;;;12.77;9.80;;;17.40;99.90;;;;;;5014800;28;20350;-77
2021/09/15 04:08:04;;;;;;;9.73;8.50;;;17.50;99.90;;;;;;4996029;28;20296;-78
2021/09/15 04:10:31;;;;;;;13.00;9.45;;;17.50;99.90;;;;;;5014210;28;20223;-78
2021/09/15 04:12:59;;;;;;;12.82;9.35;;;17.50;99.90;;;;;;5004733;28;20197;-78
2021/09/15 04:15:27;;;;;;;10.48;8.50;;;17.50;99.90;;;;;;5018944;28;20735;-77
2021/09/15 04:17:54;;;;;;;10.73;8.55;;;17.50;99.90;;;;;;4991850;28;20689;-78
2021/09/15 04:20:21;;;;;;;10.15;8.05;;;17.50;99.90;;;;;;5010516;28;20204;-78
2021/09/15 04:22:48;;;;;;;11.35;9.10;;;17.50;99.90;;;;;;5014593;28;20572;-78
2021/09/15 04:33:30;;;;;;;11.52;8.88;;;17.20;99.90;;;;;;5034522;28;20575;-78
2021/09/15 04:35:57;;;;;;;10.80;9.15;;;17.20;99.90;;;;;;5013514;28;20600;-78
2021/09/15 04:38:24;;;;;;;14.52;9.43;;;17.20;99.90;;;;;;5034355;28;20224;-77
2021/09/15 04:40:51;;;;;;;12.45;9.40;;;17.20;99.90;;;;;;5001263;28;20622;-78
2021/09/15 04:43:19;;;;;;;10.65;9.02;;;17.20;99.90;;;;;;4995519;28;20292;-78
2021/09/15 04:45:46;;;;;;;13.32;9.13;;;17.20;99.90;;;;;;5014928;28;20220;-78
2021/09/15 04:48:12;;;;;;;13.82;9.38;;;17.10;99.90;;;;;;5014390;28;20207;-78
2021/09/15 04:50:39;;;;;;;13.10;8.88;;;17.20;99.90;;;;;;5000317;28;20204;-78
2021/09/15 04:53:06;;;;;;;10.23;8.63;;;17.10;99.90;;;;;;4994814;28;20209;-78
2021/09/15 04:55:33;;;;;;;11.25;9.30;;;17.20;99.90;;;;;;4994149;28;20220;-79
2021/09/15 04:58:00;;;;;;;13.02;10.02;;;17.10;99.90;;;;;;4993713;28;20221;-78
2021/09/15 05:00:29;;;;;;;12.90;9.80;;;17.00;99.90;;;;;;5004893;28;20200;-78
2021/09/15 05:02:55;;;;;;;14.45;9.77;;;17.00;99.90;;;;;;5016007;28;20208;-78
2021/09/15 05:05:23;;;;;;;11.13;9.82;;;17.00;99.90;;;;;;4993853;28;20295;-80
2021/09/15 05:07:49;;;;;;;11.82;9.77;;;16.90;99.90;;;;;;5012502;28;20226;-80
2021/09/15 05:10:17;;;;;;;12.45;9.90;;;16.90;99.90;;;;;;5014096;28;20299;-81
2021/09/15 05:12:43;;;;;;;14.38;10.52;;;16.80;99.90;;;;;;5014382;28;20200;-81
2021/09/15 05:15:11;;;;;;;15.45;11.07;;;16.90;99.90;;;;;;5014541;28;20660;-81
2021/09/15 05:17:39;;;;;;;17.58;11.13;;;16.80;99.90;;;;;;4997664;28;20220;-80
2021/09/15 05:20:06;;;;;;;45.30;15.45;;;16.70;99.90;;;;;;4994976;28;20205;-81
2021/09/15 05:22:33;;;;;;;75.57;21.40;;;16.60;99.90;;;;;;4995230;28;20196;-81
2021/09/15 05:25:00;;;;;;;64.03;19.77;;;16.70;99.90;;;;;;4994911;28;20205;-81
2021/09/15 05:27:27;;;;;;;53.92;17.27;;;16.60;99.90;;;;;;4994083;28;20219;-81
2021/09/15 05:29:54;;;;;;;44.63;16.55;;;16.70;99.90;;;;;;4994619;28;20211;-81
2021/09/15 05:32:20;;;;;;;41.88;14.40;;;16.80;99.90;;;;;;4995217;28;20657;-81
2021/09/15 05:34:49;;;;;;;43.50;15.50;;;16.80;99.90;;;;;;4994548;28;20215;-81
2021/09/15 05:37:15;;;;;;;43.15;14.45;;;16.90;99.90;;;;;;5010436;28;20328;-81
2021/09/15 05:39:42;;;;;;;33.58;13.70;;;16.90;99.90;;;;;;5014076;28;20276;-81
2021/09/15 05:42:09;;;;;;;30.38;13.57;;;16.90;99.90;;;;;;5002918;28;20208;-81
2021/09/15 05:44:36;;;;;;;31.00;12.68;;;17.00;99.90;;;;;;5010338;28;20214;-81
2021/09/15 05:47:03;;;;;;;37.75;14.00;;;17.10;99.90;;;;;;5013714;28;20221;-81
2021/09/15 05:49:30;;;;;;;22.30;11.70;;;17.10;99.90;;;;;;5013834;28;20207;-81
2021/09/15 05:51:58;;;;;;;21.45;11.68;;;17.10;99.90;;;;;;5013794;28;20540;-81
2021/09/15 05:54:25;;;;;;;25.05;11.52;;;17.20;99.90;;;;;;5013694;28;20207;-80
2021/09/15 05:56:52;;;;;;;26.50;12.15;;;17.30;99.90;;;;;;5000492;28;20712;-81
2021/09/15 05:59:18;;;;;;;26.88;12.85;;;17.40;99.90;;;;;;4994298;28;20215;-81
2021/09/15 06:01:45;;;;;;;24.63;13.30;;;17.50;99.90;;;;;;5009695;28;20207;-81
2021/09/15 06:04:12;;;;;;;21.92;13.15;;;17.50;99.90;;;;;;5019952;28;20206;-81
2021/09/15 06:06:39;;;;;;;29.55;12.93;;;17.50;99.90;;;;;;5014201;28;20227;-81
2021/09/15 06:09:07;;;;;;;28.63;12.98;;;17.60;99.90;;;;;;5029997;28;20443;-80
2021/09/15 06:11:34;;;;;;;24.90;12.73;;;17.60;99.90;;;;;;5018386;28;20290;-80
2021/09/15 06:14:01;;;;;;;22.40;12.88;;;17.70;99.90;;;;;;5021094;28;20292;-81
2021/09/15 06:16:27;;;;;;;26.08;12.82;;;17.70;99.90;;;;;;5010579;28;20312;-81
2021/09/15 06:18:54;;;;;;;20.55;12.23;;;17.80;99.90;;;;;;5010614;28;20765;-81
2021/09/15 06:21:21;;;;;;;21.00;10.90;;;17.90;99.90;;;;;;5015900;28;20211;-81
2021/09/15 06:23:51;;;;;;;19.45;11.27;;;18.00;99.90;;;;;;5007187;28;20211;-80
2021/09/15 06:26:23;;;;;;;14.77;10.90;;;18.00;99.90;;;;;;5013446;28;20216;-81
2021/09/15 06:28:50;;;;;;;22.17;10.38;;;18.10;99.90;;;;;;5016812;28;20212;-81
2021/09/15 06:31:17;;;;;;;16.45;10.73;;;18.20;99.90;;;;;;5012776;28;20208;-81
2021/09/15 06:33:44;;;;;;;17.85;10.80;;;18.30;99.90;;;;;;4999444;28;20679;-80
2021/09/15 06:36:11;;;;;;;19.20;10.32;;;18.30;99.90;;;;;;5010829;28;20735;-81
2021/09/15 06:38:38;;;;;;;22.38;10.25;;;18.40;99.90;;;;;;5012301;28;20224;-81
2021/09/15 06:41:04;;;;;;;19.63;10.55;;;18.50;99.90;;;;;;5011046;28;20219;-81
2021/09/15 06:43:33;;;;;;;22.98;10.70;;;18.50;99.90;;;;;;5002597;28;20642;-81
2021/09/15 06:45:59;;;;;;;18.92;10.88;;;18.50;99.90;;;;;;4991107;28;20409;-80
2021/09/15 06:48:26;;;;;;;20.58;10.70;;;18.50;99.90;;;;;;5011260;28;20570;-80
2021/09/15 06:50:53;;;;;;;17.08;10.15;;;18.50;99.90;;;;;;5010988;28;20199;-81
2021/09/15 06:53:20;;;;;;;18.90;11.10;;;18.50;99.90;;;;;;5007958;28;20292;-81
2021/09/15 06:55:47;;;;;;;25.95;10.73;;;18.50;99.90;;;;;;4992390;28;20311;-81
2021/09/15 06:58:14;;;;;;;19.70;11.07;;;18.50;99.90;;;;;;5013516;28;20671;-81
2021/09/15 07:00:42;;;;;;;24.17;9.98;;;18.60;99.90;;;;;;5016751;28;20219;-81
2021/09/15 07:03:09;;;;;;;20.50;11.38;;;18.50;99.90;;;;;;5005025;28;20725;-81
2021/09/15 07:05:36;;;;;;;15.45;9.57;;;18.50;99.90;;;;;;4996446;28;20319;-81
2021/09/15 07:08:03;;;;;;;21.85;10.02;;;18.50;99.90;;;;;;5013190;28;20224;-81
2021/09/15 07:10:33;;;;;;;16.42;9.70;;;18.60;99.90;;;;;;5001677;28;20679;-81
2021/09/15 07:13:00;;;;;;;20.08;9.73;;;18.60;99.90;;;;;;5022506;28;20670;-81
2021/09/15 07:15:27;;;;;;;18.00;11.23;;;18.70;99.90;;;;;;5022711;28;20299;-81
2021/09/15 07:17:55;;;;;;;13.35;9.18;;;18.60;99.90;;;;;;5011356;28;20225;-80
2021/09/15 07:20:22;;;;;;;15.60;9.82;;;18.60;99.90;;;;;;4995546;28;20212;-81
2021/09/15 07:22:49;;;;;;;19.95;10.32;;;18.70;99.90;;;;;;4998462;28;20656;-81
2021/09/15 07:25:16;;;;;;;15.60;9.93;;;18.70;99.90;;;;;;5016247;28;20204;-81
2021/09/15 07:27:43;;;;;;;14.90;9.68;;;18.70;99.90;;;;;;5013181;28;20287;-81
2021/09/15 07:30:11;;;;;;;17.10;10.40;;;18.60;99.90;;;;;;5010769;28;20215;-81
2021/09/15 07:32:38;;;;;;;17.77;10.43;;;18.60;99.90;;;;;;5004769;28;20205;-81
2021/09/15 07:35:09;;;;;;;17.88;10.70;;;18.60;99.90;;;;;;5012355;28;20211;-81
2021/09/15 07:37:36;;;;;;;19.33;10.65;;;18.40;99.90;;;;;;5037450;28;20228;-81
2021/09/15 07:40:04;;;;;;;26.88;12.25;;;18.40;99.90;;;;;;5021573;28;20204;-81
2021/09/15 07:42:31;;;;;;;20.83;12.02;;;18.20;99.90;;;;;;5018530;28;20204;-81
2021/09/15 07:44:57;;;;;;;20.50;11.40;;;18.00;99.90;;;;;;5018769;28;20242;-81
2021/09/15 07:47:24;;;;;;;21.50;12.00;;;17.80;99.90;;;;;;5017686;28;20311;-81
2021/09/15 07:49:51;;;;;;;21.00;11.57;;;17.90;99.90;;;;;;5012642;28;20208;-81
2021/09/15 07:52:19;;;;;;;17.30;11.55;;;17.90;99.90;;;;;;5033621;28;20223;-81
2021/09/15 07:54:46;;;;;;;19.13;12.07;;;18.00;99.90;;;;;;5026355;28;20576;-80
2021/09/15 07:57:13;;;;;;;20.02;13.20;;;18.00;99.90;;;;;;5019744;28;20234;-81
2021/09/15 07:59:43;;;;;;;20.23;13.35;;;17.90;99.90;;;;;;5018769;28;20383;-81
2021/09/15 08:02:10;;;;;;;22.27;13.98;;;18.10;99.90;;;;;;5019593;28;20663;-81
2021/09/15 08:04:37;;;;;;;19.13;13.05;;;18.20;99.90;;;;;;5014823;28;20215;-81
2021/09/15 08:07:04;;;;;;;19.35;14.35;;;18.30;99.90;;;;;;5003638;28;20221;-81
2021/09/15 08:09:32;;;;;;;26.05;14.45;;;18.40;99.90;;;;;;4998398;28;20287;-81
2021/09/15 08:11:59;;;;;;;21.08;14.88;;;18.40;99.90;;;;;;5005061;28;20212;-81
2021/09/15 08:14:26;;;;;;;20.67;14.23;;;18.50;99.90;;;;;;5018053;28;20691;-81
2021/09/15 08:16:54;;;;;;;18.02;13.35;;;18.50;99.90;;;;;;5001867;28;20243;-81
2021/09/15 08:19:22;;;;;;;19.80;13.38;;;18.60;99.90;;;;;;4998638;28;20225;-81
2021/09/15 08:21:49;;;;;;;17.73;12.93;;;18.70;99.90;;;;;;5004018;28;20255;-81
2021/09/15 08:24:16;;;;;;;16.25;12.00;;;18.80;99.90;;;;;;5018346;28;20201;-81
2021/09/15 08:26:44;;;;;;;15.85;11.63;;;18.80;99.90;;;;;;5018141;28;20655;-80
2021/09/15 08:29:11;;;;;;;15.85;12.13;;;18.80;99.90;;;;;;5014222;28;20649;-80
2021/09/15 08:31:38;;;;;;;19.92;12.48;;;19.00;99.90;;;;;;4998026;28;20201;-80
2021/09/15 08:34:05;;;;;;;14.38;11.82;;;19.00;99.90;;;;;;4997858;28;20792;-80
2021/09/15 08:36:32;;;;;;;14.93;12.23;;;19.10;99.90;;;;;;4995993;28;20311;-81
2021/09/15 08:38:59;;;;;;;16.20;12.60;;;19.10;99.90;;;;;;4997403;28;20225;-82
2021/09/15 08:41:25;;;;;;;15.98;12.18;;;19.20;99.90;;;;;;5011763;28;20243;-81
2021/09/15 08:43:54;;;;;;;14.85;12.13;;;19.20;99.90;;;;;;5016826;28;20216;-81
2021/09/15 08:46:21;;;;;;;16.45;11.88;;;19.20;99.90;;;;;;5017312;28;20328;-81
2021/09/15 08:48:48;;;;;;;18.17;12.75;;;19.30;99.90;;;;;;5005331;28;20189;-81
2021/09/15 08:51:22;;;;;;;16.52;12.90;;;19.50;99.90;;;;;;5005219;28;20259;-81
2021/09/15 08:53:50;;;;;;;15.80;12.13;;;19.50;99.90;;;;;;5004728;28;20535;-81
2021/09/15 08:56:17;;;;;;;19.23;12.10;;;19.50;99.90;;;;;;5010420;28;20576;-81
2021/09/15 08:58:44;;;;;;;15.98;11.93;;;19.60;99.90;;;;;;5011261;28;20231;-81
2021/09/15 09:01:18;;;;;;;17.15;12.35;;;19.60;99.90;;;;;;5009997;28;20325;-81
2021/09/15 09:03:46;;;;;;;16.33;11.98;;;19.90;99.90;;;;;;5010124;28;20657;-81
2021/09/15 09:06:15;;;;;;;18.95;12.18;;;20.00;99.90;;;;;;5007419;28;20237;-81
2021/09/15 09:08:43;;;;;;;15.93;11.90;;;20.10;99.90;;;;;;5030809;28;20282;-81
2021/09/15 09:11:11;;;;;;;18.05;13.52;;;20.20;99.90;;;;;;5008499;28;20212;-81
2021/09/15 09:13:49;;;;;;;19.38;14.85;;;20.30;99.90;;;;;;4991264;28;20208;-81
2021/09/15 09:16:18;;;;;;;20.25;15.13;;;20.50;99.90;;;;;;4997118;28;20231;-81
2021/09/15 09:18:59;;;;;;;19.88;13.85;;;20.50;99.90;;;;;;4998585;28;20221;-81
2021/09/15 09:21:27;;;;;;;24.00;14.55;;;20.70;99.90;;;;;;5009410;28;20250;-81
2021/09/15 09:23:58;;;;;;;20.15;14.13;;;20.80;99.90;;;;;;5010324;28;20242;-81
2021/09/15 09:26:45;;;;;;;19.58;13.35;;;20.80;99.90;;;;;;5009063;28;20233;-81
2021/09/15 09:29:13;;;;;;;16.40;12.95;;;20.90;99.90;;;;;;5010012;28;20932;-81
2021/09/15 09:31:42;;;;;;;17.15;12.15;;;20.90;99.90;;;;;;4999833;28;20692;-81
2021/09/15 09:34:09;;;;;;;18.33;13.50;;;20.80;99.90;;;;;;4994106;28;20231;-81
2021/09/15 09:36:36;;;;;;;17.88;12.65;;;20.90;99.90;;;;;;5025813;28;21376;-81
2021/09/15 09:39:11;;;;;;;20.38;13.85;;;21.00;99.90;;;;;;5022004;28;20216;-81
2021/09/15 09:41:38;;;;;;;18.05;14.25;;;21.00;99.90;;;;;;5024384;28;20199;-81
2021/09/15 09:44:05;;;;;;;21.92;16.48;;;21.40;99.90;;;;;;5026891;28;20212;-81
2021/09/15 09:46:35;;;;;;;17.52;14.65;;;21.30;99.90;;;;;;5025449;28;20283;-81
2021/09/15 09:49:04;;;;;;;19.17;14.73;;;21.40;99.90;;;;;;5020755;28;20657;-81
2021/09/15 09:51:34;;;;;;;17.65;13.82;;;21.40;99.90;;;;;;5005944;28;20222;-81
2021/09/15 09:54:12;;;;;;;18.15;13.85;;;21.40;99.90;;;;;;5005089;28;20253;-82
2021/09/15 09:56:42;;;;;;;17.92;12.82;;;21.90;99.90;;;;;;5005620;28;20220;-82
2021/09/15 09:59:12;;;;;;;16.88;12.98;;;22.10;99.90;;;;;;5005387;28;20224;-81
2021/09/15 10:01:42;;;;;;;17.52;12.30;;;22.00;99.90;;;;;;5018972;28;20216;-82
2021/09/15 10:04:11;;;;;;;13.43;10.90;;;22.10;99.90;;;;;;5013911;28;20298;-81
2021/09/15 10:06:40;;;;;;;14.82;11.27;;;21.90;99.90;;;;;;5000389;28;20649;-82
2021/09/15 10:09:09;;;;;;;14.70;10.68;;;21.80;99.90;;;;;;5005089;28;20641;-82
2021/09/15 10:11:38;;;;;;;12.48;10.48;;;21.80;99.90;;;;;;5004317;28;20627;-82
2021/09/15 10:14:08;;;;;;;14.93;11.18;;;21.80;99.90;;;;;;5011435;28;20192;-82
2021/09/15 10:16:41;;;;;;;11.07;9.57;;;21.90;99.90;;;;;;5023468;28;20215;-82
2021/09/15 10:19:12;;;;;;;12.98;10.63;;;21.70;99.90;;;;;;5023923;28;20729;-82
2021/09/15 10:21:39;;;;;;;16.05;10.80;;;21.90;99.90;;;;;;5010872;28;20532;-82
2021/09/15 10:24:06;;;;;;;14.10;10.98;;;21.90;99.90;;;;;;4998630;28;20207;-82
2021/09/15 10:26:39;;;;;;;12.57;10.18;;;21.90;99.90;;;;;;5002328;28;20224;-82
2021/09/15 10:29:30;;;;;;;12.63;10.05;;;21.90;99.90;;;;;;5002508;28;20542;-82
2021/09/15 10:32:06;;;;;;;11.95;10.73;;;21.90;99.90;;;;;;4996490;28;20519;-82
2021/09/15 10:34:54;;;;;;;13.95;9.88;;;22.20;99.90;;;;;;5015668;28;20207;-82
2021/09/15 10:37:52;;;;;;;12.10;10.80;;;22.00;99.90;;;;;;4987067;28;20247;-84
2021/09/15 10:40:37;;;;;;;12.45;10.98;;;21.90;99.90;;;;;;4986745;28;20612;-81
2021/09/15 10:43:25;;;;;;;14.52;11.30;;;21.90;99.90;;;;;;4987311;28;20296;-80
2021/09/15 10:46:22;;;;;;;13.20;10.98;;;21.90;99.90;;;;;;4984566;28;20239;-83
2021/09/15 10:49:31;;;;;;;13.05;10.95;;;21.70;99.90;;;;;;4985005;28;20211;-82
2021/09/15 10:52:26;;;;;;;12.80;10.80;;;21.70;99.90;;;;;;4987529;28;20209;-81
2021/09/15 10:54:55;;;;;;;14.57;11.52;;;21.80;99.90;;;;;;4982775;28;20235;-83
2021/09/15 10:57:29;;;;;;;13.07;10.93;;;21.90;99.90;;;;;;4999325;28;20231;-80
2021/09/15 10:59:57;;;;;;;13.70;11.02;;;21.70;99.90;;;;;;5003966;28;20231;-81
2021/09/15 11:02:29;;;;;;;12.93;10.32;;;21.80;99.90;;;;;;5004238;28;20736;-82
2021/09/15 11:04:57;;;;;;;13.90;11.23;;;21.80;99.90;;;;;;5004207;28;20694;-82
2021/09/15 11:07:58;;;;;;;15.98;12.52;;;21.90;99.90;;;;;;5004462;28;20291;-83
2021/09/15 11:10:42;;;;;;;14.13;11.80;;;22.00;99.90;;;;;;5000100;28;20510;-83
2021/09/15 11:13:10;;;;;;;14.63;12.00;;;22.10;99.90;;;;;;5003573;28;20632;-80
2021/09/15 11:15:39;;;;;;;16.27;13.57;;;22.10;99.90;;;;;;5004943;28;20730;-82
2021/09/15 11:18:08;;;;;;;13.45;11.93;;;22.30;99.90;;;;;;5002436;28;20324;-82
2021/09/15 11:20:37;;;;;;;13.40;11.90;;;22.60;99.90;;;;;;5003425;28;20228;-80
2021/09/15 11:23:05;;;;;;;13.25;10.60;;;22.70;99.90;;;;;;5004817;28;20350;-81
2021/09/15 11:25:33;;;;;;;14.57;9.90;;;22.70;99.90;;;;;;5005274;28;20375;-81
2021/09/15 11:28:06;;;;;;;17.08;10.80;;;22.80;99.90;;;;;;5006582;28;20229;-82
2021/09/15 11:30:33;;;;;;;11.02;9.45;;;22.90;99.90;;;;;;5004358;28;20283;-83
2021/09/15 11:33:00;;;;;;;11.65;9.98;;;23.00;99.90;;;;;;5006287;28;20301;-83
2021/09/15 11:35:28;;;;;;;15.60;10.02;;;23.00;99.90;;;;;;5003680;28;20243;-80
2021/09/15 11:37:55;;;;;;;12.63;9.98;;;23.00;99.90;;;;;;4989566;28;20243;-81
2021/09/15 11:40:28;;;;;;;13.82;10.30;;;22.90;99.90;;;;;;4984274;28;20773;-82
2021/09/15 11:42:55;;;;;;;13.10;9.90;;;22.70;99.90;;;;;;4986572;28;20217;-80
2021/09/15 11:45:24;;;;;;;11.20;9.80;;;22.60;99.90;;;;;;4988916;28;20413;-83
2021/09/15 11:47:53;;;;;;;10.52;9.43;;;22.60;99.90;;;;;;4988583;28;20209;-81
2021/09/15 11:50:23;;;;;;;12.43;10.07;;;22.60;99.90;;;;;;4988005;28;20220;-80
2021/09/15 11:52:55;;;;;;;15.30;10.48;;;22.70;99.90;;;;;;5012764;28;20413;-80
2021/09/15 11:55:22;;;;;;;10.70;9.60;;;22.70;99.90;;;;;;5011937;28;20209;-81
2021/09/15 11:57:50;;;;;;;13.73;10.65;;;22.70;99.90;;;;;;5008978;28;20664;-81
2021/09/15 12:00:17;;;;;;;12.18;9.75;;;22.90;99.90;;;;;;4994047;28;20217;-80
2021/09/15 12:02:46;;;;;;;13.10;9.68;;;22.90;99.90;;;;;;4997665;28;20209;-80
2021/09/15 12:05:13;;;;;;;13.27;9.48;;;23.10;99.90;;;;;;5006092;28;20212;-80
2021/09/15 12:07:43;;;;;;;14.82;9.98;;;23.10;99.90;;;;;;5006817;28;20212;-81
2021/09/15 12:10:13;;;;;;;12.48;9.38;;;23.10;99.90;;;;;;5009145;28;20200;-80
2021/09/15 12:12:40;;;;;;;10.82;9.13;;;23.10;99.90;;;;;;4999169;28;20338;-82
2021/09/15 12:15:08;;;;;;;11.88;8.85;;;23.20;99.90;;;;;;5003967;28;20218;-82
2021/09/15 12:17:36;;;;;;;12.93;9.77;;;23.10;99.90;;;;;;5008176;28;20742;-81
2021/09/15 12:20:04;;;;;;;11.00;9.10;;;23.20;99.90;;;;;;5001484;28;20438;-80
2021/09/15 12:22:32;;;;;;;10.98;9.80;;;23.30;99.90;;;;;;5002268;28;20212;-81
2021/09/15 12:25:05;;;;;;;11.73;8.93;;;23.30;99.90;;;;;;5029113;28;20257;-80
2021/09/15 12:27:34;;;;;;;10.15;8.68;;;23.20;99.90;;;;;;5021210;28;20426;-80
2021/09/15 12:30:04;;;;;;;12.23;9.00;;;23.20;99.90;;;;;;4988168;28;20201;-80
2021/09/15 12:32:33;;;;;;;16.48;9.35;;;23.10;99.90;;;;;;4995575;28;20211;-84
2021/09/15 12:35:00;;;;;;;16.15;10.88;;;23.00;99.90;;;;;;5010652;28;20220;-83
2021/09/15 12:37:27;;;;;;;11.05;8.50;;;23.00;99.90;;;;;;5006329;28;20263;-80
2021/09/15 12:39:56;;;;;;;13.10;8.15;;;23.00;99.90;;;;;;5006675;28;20682;-83
2021/09/15 12:42:24;;;;;;;13.05;7.30;;;22.90;99.90;;;;;;5008757;28;20306;-81